Time;durP1;ratioP1;P1;durP2;ratioP2;P2;SDS_P1;SDS_P2;PMS_P1;PMS_P2;Temp;Humidity;BMP_temperature;BMP_pressure;BME280_temperature;BME280_humidity;BME280_pressure;Samples;Min_cycle;Max_cycle;Signal;HPM_P1;HPM_P2
2021/04/17 00:01:33;;;;;;;1.23;1.17;;;;;;;;;;5100377;28;20261;-72
2021/04/17 00:03:59;;;;;;;3.67;1.63;;;;;;;;;;5101787;28;20210;-72
2021/04/17 00:06:25;;;;;;;2.67;1.13;;;;;;;;;;5102590;28;20178;-72
2021/04/17 00:08:51;;;;;;;1.03;1.03;;;7.90;74.10;;;;;;5102445;28;20232;-73
2021/04/17 00:11:17;;;;;;;1.13;0.97;;;7.90;75.20;;;;;;5103288;28;20173;-72
2021/04/17 00:13:43;;;;;;;0.80;0.80;;;;;;;;;;5101389;28;20272;-72
2021/04/17 00:16:09;;;;;;;1.90;1.13;;;7.70;76.80;;;;;;5100486;28;20173;-72
2021/04/17 00:18:35;;;;;;;0.90;0.90;;;;;;;;;;5102524;28;20189;-71
2021/04/17 00:21:01;;;;;;;0.93;0.93;;;;;;;;;;5103643;28;20169;-72
2021/04/17 00:23:27;;;;;;;1.30;1.30;;;;;;;;;;5100119;28;20661;-73
2021/04/17 00:25:53;;;;;;;1.27;1.27;;;;;;;;;;5102432;28;20597;-73
2021/04/17 00:28:19;;;;;;;0.97;0.97;;;;;;;;;;5100504;28;20181;-73
2021/04/17 00:30:45;;;;;;;0.90;0.90;;;;;;;;;;5103897;28;20213;-73
2021/04/17 00:33:12;;;;;;;0.87;0.87;;;;;;;;;;5099752;28;20220;-73
2021/04/17 00:35:38;;;;;;;0.97;0.97;;;7.20;82.00;;;;;;5103485;28;20242;-73
2021/04/17 00:38:04;;;;;;;0.93;0.93;;;;;;;;;;5103115;28;20170;-73
2021/04/17 00:40:29;;;;;;;1.10;1.00;;;7.10;83.70;;;;;;5102941;28;20181;-72
2021/04/17 00:42:55;;;;;;;2.57;0.77;;;;;;;;;;5100862;28;20680;-73
2021/04/17 00:45:21;;;;;;;1.17;1.07;;;;;;;;;;5103018;28;20173;-73
2021/04/17 00:47:47;;;;;;;0.80;0.80;;;6.70;86.00;;;;;;5101934;28;20174;-72
2021/04/17 00:50:14;;;;;;;0.73;0.73;;;6.60;86.00;;;;;;5099100;28;20820;-73
2021/04/17 00:52:41;;;;;;;0.70;0.70;;;6.60;86.90;;;;;;5100881;28;20563;-73
2021/04/17 00:55:08;;;;;;;0.80;0.80;;;6.50;87.00;;;;;;5100350;28;20186;-73
2021/04/17 00:57:34;;;;;;;0.87;0.83;;;;;;;;;;5100930;28;20181;-72
2021/04/17 01:00:00;;;;;;;0.90;0.90;;;;;;;;;;5101730;28;20177;-73
2021/04/17 01:02:33;;;;;;;0.80;0.80;;;6.50;87.60;;;;;;5080678;28;20233;-73
2021/04/17 01:05:00;;;;;;;1.13;0.63;;;6.60;87.10;;;;;;5100578;28;20705;-73
2021/04/17 01:07:45;;;;;;;0.70;0.70;;;6.60;87.50;;;;;;5102326;28;20688;-72
2021/04/17 01:10:11;;;;;;;0.63;0.63;;;;;;;;;;5080406;28;20246;-72
2021/04/17 01:12:43;;;;;;;2.30;0.70;;;6.60;87.60;;;;;;5100356;28;20189;-72
2021/04/17 01:15:12;;;;;;;0.53;0.53;;;6.50;88.20;;;;;;5101827;28;20214;-73
2021/04/17 01:17:40;;;;;;;1.07;0.70;;;6.50;88.50;;;;;;5103113;28;20192;-74
2021/04/17 01:20:18;;;;;;;0.53;0.53;;;6.50;88.40;;;;;;5099619;28;20171;-73
2021/04/17 01:22:53;;;;;;;0.93;0.93;;;6.50;88.10;;;;;;5099279;28;20169;-73
2021/04/17 01:25:23;;;;;;;0.80;0.80;;;6.50;87.80;;;;;;5100732;28;20181;-73
2021/04/17 01:27:49;;;;;;;1.10;1.03;;;;;;;;;;5097653;28;20184;-73
2021/04/17 01:30:20;;;;;;;0.43;0.43;;;6.50;88.20;;;;;;5101538;28;20179;-72
2021/04/17 01:32:48;;;;;;;0.60;0.60;;;6.50;87.70;;;;;;5078855;28;20178;-72
2021/04/17 01:35:18;;;;;;;0.50;0.50;;;6.60;88.70;;;;;;5102393;28;20241;-72
2021/04/17 01:37:44;;;;;;;1.60;0.90;;;;;;;;;;5102925;28;20574;-72
2021/04/17 01:40:11;;;;;;;0.70;0.70;;;6.50;88.70;;;;;;5106477;28;20185;-72
2021/04/17 01:42:39;;;;;;;0.53;0.53;;;6.50;88.50;;;;;;5104784;28;20171;-73
2021/04/17 01:45:07;;;;;;;1.10;1.00;;;6.50;89.30;;;;;;5105565;28;20302;-72
2021/04/17 01:47:37;;;;;;;0.67;0.50;;;6.50;89.00;;;;;;5106248;28;20166;-74
2021/04/17 01:50:03;;;;;;;5.70;0.63;;;6.50;89.30;;;;;;5101371;28;20181;-74
2021/04/17 01:52:29;;;;;;;0.60;0.60;;;6.50;89.10;;;;;;5104865;28;20243;-73
2021/04/17 01:54:57;;;;;;;0.40;0.40;;;6.50;89.40;;;;;;5106512;28;20651;-73
2021/04/17 01:57:26;;;;;;;0.40;0.40;;;6.50;89.00;;;;;;5101225;28;20205;-73
2021/04/17 01:59:52;;;;;;;0.60;0.60;;;6.50;89.90;;;;;;5105630;28;20166;-72
2021/04/17 02:02:18;;;;;;;0.73;0.40;;;6.50;89.80;;;;;;5101145;28;20189;-72
2021/04/17 02:04:44;;;;;;;0.70;0.70;;;6.50;89.90;;;;;;5104182;28;20209;-71
2021/04/17 02:07:10;;;;;;;0.70;0.67;;;6.50;90.20;;;;;;5106006;28;20185;-73
2021/04/17 02:09:37;;;;;;;1.07;0.60;;;;;;;;;;5102636;28;20176;-73
2021/04/17 02:12:03;;;;;;;0.50;0.50;;;6.50;90.20;;;;;;5103396;28;20185;-71
2021/04/17 02:14:29;;;;;;;0.67;0.67;;;;;;;;;;5105511;28;20182;-73
2021/04/17 02:17:09;;;;;;;0.43;0.43;;;6.40;90.60;;;;;;5103419;28;20235;-74
2021/04/17 02:20:08;;;;;;;0.63;0.60;;;6.50;90.40;;;;;;5084951;28;20252;-73
2021/04/17 02:22:35;;;;;;;0.60;0.60;;;6.50;90.30;;;;;;5013803;28;20222;-72
2021/04/17 02:25:04;;;;;;;0.63;0.33;;;6.50;90.30;;;;;;4994803;28;20216;-73
2021/04/17 02:27:30;;;;;;;0.60;0.60;;;6.50;90.10;;;;;;5016030;28;20188;-72
2021/04/17 02:29:57;;;;;;;2.30;0.67;;;6.50;90.00;;;;;;5008493;28;20245;-73
2021/04/17 02:32:23;;;;;;;0.30;0.30;;;6.50;90.20;;;;;;5010776;28;20228;-72
2021/04/17 02:34:50;;;;;;;0.30;0.30;;;6.60;90.10;;;;;;5017354;28;20185;-73
2021/04/17 02:37:16;;;;;;;0.40;0.40;;;6.60;90.00;;;;;;5008233;28;20373;-72
2021/04/17 02:39:42;;;;;;;0.40;0.40;;;6.60;90.20;;;;;;5009721;28;20700;-72
2021/04/17 02:42:09;;;;;;;3.30;0.50;;;6.60;90.40;;;;;;5012569;28;20203;-71
2021/04/17 02:44:35;;;;;;;0.87;0.60;;;6.60;90.40;;;;;;4994479;28;20244;-71
2021/04/17 02:47:01;;;;;;;0.50;0.50;;;;;;;;;;5030343;28;20654;-71
2021/04/17 02:49:27;;;;;;;0.37;0.37;;;;;;;;;;5013399;28;20262;-72
2021/04/17 02:51:53;;;;;;;0.40;0.40;;;;;;;;;;5010048;28;20189;-72
2021/04/17 02:54:19;;;;;;;0.60;0.60;;;6.70;90.50;;;;;;5010076;28;20219;-72
2021/04/17 02:56:45;;;;;;;0.40;0.40;;;;;;;;;;5010346;28;20687;-72
2021/04/17 02:59:11;;;;;;;0.60;0.60;;;;;;;;;;5096904;28;20709;-72
2021/04/17 03:01:37;;;;;;;0.60;0.60;;;6.60;90.40;;;;;;5101780;28;20169;-73
2021/04/17 03:04:04;;;;;;;0.57;0.57;;;6.70;90.80;;;;;;5099121;28;20206;-73
2021/04/17 03:06:30;;;;;;;0.50;0.50;;;;;;;;;;5103485;28;20290;-72
2021/04/17 03:08:56;;;;;;;0.50;0.50;;;;;;;;;;5101707;28;20185;-73
2021/04/17 03:11:22;;;;;;;0.40;0.40;;;;;;;;;;5102143;28;20185;-72
2021/04/17 03:13:48;;;;;;;0.50;0.50;;;6.60;91.40;;;;;;5100455;28;20311;-73
2021/04/17 03:16:15;;;;;;;0.67;0.67;;;6.60;91.10;;;;;;5101763;28;20205;-74
2021/04/17 03:18:41;;;;;;;0.67;0.67;;;;;;;;;;5098191;28;20264;-72
2021/04/17 03:21:07;;;;;;;0.37;0.37;;;;;;;;;;5104131;28;20177;-72
2021/04/17 03:23:33;;;;;;;0.40;0.40;;;;;;;;;;5104013;28;20201;-72
2021/04/17 03:25:59;;;;;;;0.57;0.57;;;;;;;;;;5102774;28;20193;-71
2021/04/17 03:28:25;;;;;;;0.50;0.50;;;;;;;;;;5085237;28;20768;-72
2021/04/17 03:30:51;;;;;;;0.50;0.50;;;6.50;91.40;;;;;;5102163;28;20234;-72
2021/04/17 03:33:17;;;;;;;1.00;1.00;;;;;;;;;;5100880;28;20211;-72
2021/04/17 03:35:43;;;;;;;0.47;0.47;;;6.50;91.50;;;;;;5104958;28;20189;-72
2021/04/17 03:38:08;;;;;;;0.40;0.40;;;6.50;91.40;;;;;;5103040;28;20178;-71
2021/04/17 03:40:34;;;;;;;0.40;0.40;;;;;;;;;;5103197;28;20208;-71
2021/04/17 03:43:00;;;;;;;0.70;0.70;;;6.40;91.40;;;;;;5105054;28;20174;-72
2021/04/17 03:45:28;;;;;;;0.50;0.50;;;6.40;91.60;;;;;;5101444;28;20181;-73
2021/04/17 03:47:54;;;;;;;0.60;0.60;;;;;;;;;;5102687;28;20174;-72
2021/04/17 03:50:20;;;;;;;0.47;0.47;;;;;;;;;;5103691;28;20292;-72
2021/04/17 03:52:46;;;;;;;0.60;0.60;;;;;;;;;;5103590;28;20173;-73
2021/04/17 03:55:15;;;;;;;0.60;0.60;;;6.40;91.40;;;;;;5102861;28;20170;-73
2021/04/17 03:57:42;;;;;;;0.60;0.60;;;6.40;91.60;;;;;;5100941;28;20225;-73
2021/04/17 04:00:12;;;;;;;0.83;0.70;;;6.40;91.60;;;;;;5102022;28;20334;-72
2021/04/17 04:02:38;;;;;;;2.57;0.67;;;;;;;;;;5104321;28;20177;-73
2021/04/17 04:05:05;;;;;;;0.70;0.70;;;6.40;91.70;;;;;;5098477;28;20217;-73
2021/04/17 04:07:31;;;;;;;0.63;0.63;;;;;;;;;;5097348;28;20176;-72
2021/04/17 04:09:57;;;;;;;0.50;0.50;;;;;;;;;;5100923;28;20293;-71
2021/04/17 04:12:23;;;;;;;0.60;0.60;;;;;;;;;;5104625;28;20186;-71
2021/04/17 04:14:49;;;;;;;1.27;1.13;;;;;;;;;;5102567;28;20196;-71
2021/04/17 04:17:15;;;;;;;0.57;0.57;;;;;;;;;;5100458;28;20178;-71
2021/04/17 04:19:41;;;;;;;1.07;1.07;;;;;;;;;;5100160;28;20182;-72
2021/04/17 04:22:08;;;;;;;0.93;0.70;;;;;;;;;;5100752;28;20245;-72
2021/04/17 04:24:34;;;;;;;0.90;0.90;;;;;;;;;;5100684;28;20295;-72
2021/04/17 04:27:00;;;;;;;0.70;0.70;;;;;;;;;;5098115;28;20182;-72
2021/04/17 04:29:26;;;;;;;12.10;0.83;;;;;;;;;;5098306;28;20233;-72
2021/04/17 04:31:52;;;;;;;0.60;0.60;;;;;;;;;;5101267;28;20178;-72
2021/04/17 04:34:18;;;;;;;2.10;1.10;;;;;;;;;;5099592;28;20181;-74
2021/04/17 04:36:44;;;;;;;0.73;0.73;;;;;;;;;;5100468;28;20219;-70
2021/04/17 04:39:10;;;;;;;0.50;0.50;;;;;;;;;;5084562;28;21568;-73
2021/04/17 04:41:36;;;;;;;0.70;0.70;;;6.40;92.60;;;;;;5101101;28;20658;-73
2021/04/17 04:44:03;;;;;;;0.50;0.50;;;6.40;92.60;;;;;;5097287;28;20237;-72
2021/04/17 04:46:31;;;;;;;0.70;0.70;;;6.30;92.40;;;;;;5102252;28;20981;-72
2021/04/17 04:48:57;;;;;;;0.67;0.67;;;;;;;;;;5101324;28;20261;-72
2021/04/17 04:51:23;;;;;;;7.83;0.90;;;;;;;;;;5100993;28;20258;-72
2021/04/17 04:53:49;;;;;;;0.67;0.67;;;;;;;;;;5100845;28;20181;-71
2021/04/17 04:56:15;;;;;;;1.63;0.83;;;;;;;;;;5101826;28;20166;-72
2021/04/17 04:58:41;;;;;;;0.57;0.57;;;;;;;;;;5099543;28;20174;-72
2021/04/17 05:01:07;;;;;;;0.43;0.43;;;;;;;;;;5094335;28;20183;-72
2021/04/17 05:03:33;;;;;;;2.23;1.00;;;;;;;;;;5098484;28;20279;-72
2021/04/17 05:05:59;;;;;;;0.67;0.67;;;;;;;;;;5094043;28;20191;-72
2021/04/17 05:08:25;;;;;;;0.53;0.53;;;;;;;;;;5090211;28;20256;-74
2021/04/17 05:10:51;;;;;;;0.70;0.70;;;;;;;;;;5099079;28;20182;-73
2021/04/17 05:13:17;;;;;;;0.70;0.70;;;;;;;;;;5101704;28;20728;-73
2021/04/17 05:15:43;;;;;;;0.80;0.80;;;;;;;;;;5106596;28;21958;-73
2021/04/17 05:18:09;;;;;;;0.73;0.73;;;;;;;;;;5102232;28;20182;-73
2021/04/17 05:20:35;;;;;;;1.37;1.00;;;;;;;;;;5107584;28;20192;-73
2021/04/17 05:23:01;;;;;;;0.60;0.60;;;;;;;;;;5105300;28;20216;-73
2021/04/17 05:25:27;;;;;;;1.03;0.83;;;;;;;;;;5101934;28;20735;-73
2021/04/17 05:27:54;;;;;;;0.60;0.60;;;;;;;;;;5104974;28;20238;-73
2021/04/17 05:30:20;;;;;;;0.83;0.83;;;5.90;94.10;;;;;;5097298;28;20613;-73
2021/04/17 05:32:46;;;;;;;0.83;0.83;;;;;;;;;;5085051;28;20191;-73
2021/04/17 05:35:12;;;;;;;1.30;0.80;;;5.80;94.30;;;;;;5106752;28;20169;-73
2021/04/17 05:37:38;;;;;;;1.17;1.17;;;;;;;;;;5102967;28;20744;-73
2021/04/17 05:40:05;;;;;;;0.53;0.53;;;5.90;94.30;;;;;;5108202;28;20193;-74
2021/04/17 05:42:31;;;;;;;0.97;0.97;;;;;;;;;;5106231;28;20242;-73
2021/04/17 05:44:57;;;;;;;1.87;1.03;;;;;;;;;;5104488;28;20216;-73
2021/04/17 05:47:22;;;;;;;1.00;1.00;;;5.90;94.10;;;;;;5104022;28;20180;-74
2021/04/17 05:49:49;;;;;;;0.67;0.67;;;;;;;;;;5088205;28;20300;-73
2021/04/17 05:52:15;;;;;;;2.67;1.07;;;;;;;;;;5101549;28;20689;-73
2021/04/17 05:54:41;;;;;;;1.63;0.67;;;;;;;;;;5085693;28;20200;-74
2021/04/17 05:57:07;;;;;;;0.80;0.80;;;;;;;;;;5103202;28;20268;-74
2021/04/17 05:59:33;;;;;;;0.87;0.87;;;;;;;;;;5103054;28;20183;-73
2021/04/17 06:01:59;;;;;;;0.50;0.50;;;;;;;;;;5104087;28;20173;-74
2021/04/17 06:04:25;;;;;;;1.10;1.10;;;;;;;;;;5100976;28;20255;-73
2021/04/17 06:06:51;;;;;;;1.73;0.83;;;;;;;;;;5100183;28;20820;-73
2021/04/17 06:09:19;;;;;;;0.97;0.93;;;;;;;;;;5098686;28;20973;-73
2021/04/17 06:11:45;;;;;;;3.00;1.23;;;;;;;;;;5096727;28;20237;-73
2021/04/17 06:14:11;;;;;;;0.93;0.87;;;;;;;;;;5104108;28;20185;-73
2021/04/17 06:16:37;;;;;;;1.03;1.03;;;;;;;;;;5107815;28;20184;-75
2021/04/17 06:19:03;;;;;;;0.93;0.93;;;;;;;;;;5105601;28;20182;-74
2021/04/17 06:21:29;;;;;;;1.17;1.17;;;;;;;;;;5104592;28;20182;-73
2021/04/17 06:23:55;;;;;;;1.17;1.10;;;;;;;;;;5102769;28;20201;-74
2021/04/17 06:26:21;;;;;;;1.40;1.40;;;;;;;;;;5100958;28;20182;-73
2021/04/17 06:28:47;;;;;;;1.87;1.60;;;;;;;;;;5099293;28;20186;-72
2021/04/17 06:31:13;;;;;;;1.17;1.03;;;;;;;;;;5105211;28;20204;-73
2021/04/17 06:33:39;;;;;;;1.47;1.37;;;;;;;;;;5105629;28;20186;-71
2021/04/17 06:36:06;;;;;;;1.67;1.57;;;;;;;;;;5102870;28;20561;-72
2021/04/17 06:38:32;;;;;;;1.30;1.30;;;;;;;;;;5103285;28;21911;-74
2021/04/17 06:40:58;;;;;;;2.00;1.33;;;;;;;;;;5099344;28;20178;-72
2021/04/17 06:43:27;;;;;;;1.50;1.30;;;6.10;93.00;;;;;;5099504;28;20387;-72
2021/04/17 06:45:55;;;;;;;1.50;1.47;;;6.10;93.10;;;;;;5104305;28;20173;-75
2021/04/17 06:48:23;;;;;;;2.57;2.40;;;6.20;93.30;;;;;;5093939;28;20170;-72
2021/04/17 06:50:50;;;;;;;1.97;1.87;;;6.20;93.30;;;;;;5102078;28;20210;-74
2021/04/17 06:53:18;;;;;;;2.43;2.23;;;6.20;93.30;;;;;;5098975;28;20171;-74
2021/04/17 06:55:49;;;;;;;2.83;2.63;;;6.20;93.10;;;;;;5094646;28;20189;-72
2021/04/17 06:58:16;;;;;;;3.20;2.33;;;6.20;93.10;;;;;;5098080;28;20264;-76
2021/04/17 07:00:42;;;;;;;3.47;3.07;;;6.20;93.20;;;;;;5101264;28;20663;-75
2021/04/17 07:03:08;;;;;;;2.70;2.50;;;6.30;93.20;;;;;;5103092;28;20239;-75
2021/04/17 07:05:33;;;;;;;2.23;2.13;;;6.30;93.00;;;;;;5099138;28;20177;-75
2021/04/17 07:08:03;;;;;;;2.03;1.93;;;6.30;93.00;;;;;;5102569;28;20265;-75
2021/04/17 07:10:29;;;;;;;2.60;2.40;;;6.30;92.90;;;;;;5098369;28;20181;-76
2021/04/17 07:13:12;;;;;;;2.80;2.57;;;6.30;92.80;;;;;;5095322;28;20199;-76
2021/04/17 07:15:39;;;;;;;3.10;2.53;;;6.30;93.00;;;;;;5102144;28;20578;-75
2021/04/17 07:18:28;;;;;;;4.33;2.50;;;6.30;93.00;;;;;;5085896;28;20608;-75
2021/04/17 07:20:54;;;;;;;3.50;2.90;;;6.30;93.00;;;;;;5101501;28;20251;-76
2021/04/17 07:23:32;;;;;;;3.77;2.57;;;6.30;93.20;;;;;;5099234;28;20209;-75
2021/04/17 07:26:14;;;;;;;4.30;2.80;;;6.20;93.20;;;;;;5101160;28;20437;-76
2021/04/17 07:29:03;;;;;;;2.57;2.37;;;6.20;93.40;;;;;;5101629;28;20251;-76
2021/04/17 07:31:31;;;;;;;4.60;2.57;;;6.20;93.30;;;;;;5098273;28;20580;-75
2021/04/17 07:33:58;;;;;;;3.40;2.47;;;6.30;93.30;;;;;;5085153;28;20266;-75
2021/04/17 07:36:54;;;;;;;2.30;2.20;;;6.30;93.30;;;;;;5099288;28;20267;-75
2021/04/17 07:39:31;;;;;;;2.47;2.27;;;6.30;93.20;;;;;;5098483;28;20182;-75
2021/04/17 07:41:59;;;;;;;2.07;1.97;;;6.30;93.40;;;;;;5102749;28;20242;-74
2021/04/17 07:44:34;;;;;;;3.17;2.97;;;6.30;93.40;;;;;;5101621;28;20213;-74
2021/04/17 07:47:00;;;;;;;3.63;2.53;;;6.40;93.30;;;;;;5100840;28;20180;-75
2021/04/17 07:49:26;;;;;;;3.00;2.63;;;6.30;93.40;;;;;;5105318;28;20631;-75
2021/04/17 07:52:02;;;;;;;1.83;1.77;;;6.30;93.70;;;;;;5096278;28;20191;-75
2021/04/17 07:54:29;;;;;;;2.60;2.50;;;6.20;93.60;;;;;;5102180;28;20185;-75
2021/04/17 07:56:55;;;;;;;3.40;3.10;;;6.30;93.80;;;;;;5098908;28;20553;-75
2021/04/17 07:59:24;;;;;;;3.43;2.50;;;6.30;93.90;;;;;;5103841;28;20260;-75
2021/04/17 08:01:51;;;;;;;2.60;2.40;;;6.40;94.10;;;;;;5095993;28;20234;-74
2021/04/17 08:04:45;;;;;;;3.10;2.90;;;6.50;93.70;;;;;;5101249;28;20308;-75
2021/04/17 08:07:11;;;;;;;2.27;2.10;;;6.60;93.00;;;;;;5097536;28;20588;-75
2021/04/17 08:09:37;;;;;;;2.93;2.80;;;6.60;93.10;;;;;;5099966;28;20182;-74
2021/04/17 08:12:04;;;;;;;3.43;3.13;;;6.70;93.20;;;;;;5097303;28;20200;-75
2021/04/17 08:14:30;;;;;;;3.23;3.03;;;6.80;93.00;;;;;;5101258;28;20193;-74
2021/04/17 08:16:56;;;;;;;2.80;2.60;;;6.80;92.90;;;;;;5100037;28;21029;-76
2021/04/17 08:19:22;;;;;;;2.83;2.63;;;6.90;92.70;;;;;;5102547;28;20566;-77
2021/04/17 08:21:50;;;;;;;2.50;2.40;;;7.00;92.70;;;;;;5101511;28;20217;-74
2021/04/17 08:24:28;;;;;;;3.57;3.30;;;7.10;92.50;;;;;;5101311;28;20706;-74
2021/04/17 08:26:55;;;;;;;2.70;2.50;;;7.10;92.20;;;;;;5098691;28;20180;-74
2021/04/17 08:29:43;;;;;;;2.77;2.57;;;7.20;92.10;;;;;;5101285;28;20185;-75
2021/04/17 08:32:26;;;;;;;3.10;2.77;;;7.30;91.60;;;;;;5096181;28;20232;-75
2021/04/17 08:35:19;;;;;;;2.67;2.47;;;7.30;91.10;;;;;;5102715;28;20181;-74
2021/04/17 08:37:56;;;;;;;2.63;2.43;;;7.20;91.70;;;;;;5100161;28;20258;-75
2021/04/17 08:40:37;;;;;;;2.43;2.23;;;7.20;91.80;;;;;;5098512;28;20178;-73
2021/04/17 08:43:24;;;;;;;3.67;1.80;;;7.20;92.10;;;;;;5101568;28;20203;-70
2021/04/17 08:46:19;;;;;;;2.57;2.37;;;7.20;92.20;;;;;;5103901;28;20192;-72
2021/04/17 08:48:52;;;;;;;2.70;2.60;;;7.20;92.10;;;;;;5012163;28;20344;-72
2021/04/17 08:51:21;;;;;;;2.03;1.93;;;7.10;91.90;;;;;;5010939;28;20288;-72
2021/04/17 08:53:51;;;;;;;2.57;2.33;;;7.10;91.80;;;;;;4996737;28;20188;-73
2021/04/17 08:56:16;;;;;;;2.37;2.17;;;7.00;92.30;;;;;;5016140;28;20208;-72
2021/04/17 08:59:08;;;;;;;2.30;2.20;;;7.00;92.30;;;;;;5010420;28;20291;-70
2021/04/17 09:01:42;;;;;;;2.30;2.10;;;7.00;92.60;;;;;;5012989;28;20260;-70
2021/04/17 09:04:12;;;;;;;2.30;2.20;;;7.10;93.00;;;;;;5012874;28;20318;-70
2021/04/17 09:06:43;;;;;;;2.10;1.90;;;7.00;92.80;;;;;;5013201;28;20246;-72
2021/04/17 09:09:21;;;;;;;3.50;2.03;;;7.00;93.00;;;;;;5005501;28;20220;-70
2021/04/17 09:11:48;;;;;;;1.90;1.80;;;6.90;92.70;;;;;;5006183;28;20294;-72
2021/04/17 09:14:26;;;;;;;2.00;1.90;;;6.90;93.20;;;;;;5012321;28;20932;-73
2021/04/17 09:16:53;;;;;;;4.40;2.40;;;7.00;93.50;;;;;;5014018;28;20184;-70
2021/04/17 09:19:40;;;;;;;2.17;1.93;;;7.10;93.20;;;;;;5010822;28;20220;-71
2021/04/17 09:22:24;;;;;;;1.70;1.63;;;7.20;93.00;;;;;;5011240;28;20577;-70
2021/04/17 09:25:12;;;;;;;1.63;1.53;;;7.20;92.90;;;;;;5044700;28;20755;-70
2021/04/17 09:27:41;;;;;;;1.70;1.60;;;7.30;92.70;;;;;;5100770;28;20434;-71
2021/04/17 09:30:07;;;;;;;1.07;1.00;;;7.20;92.80;;;;;;5096300;28;20185;-71
2021/04/17 09:32:49;;;;;;;1.67;1.63;;;7.30;92.80;;;;;;5105409;28;20178;-74
2021/04/17 09:35:27;;;;;;;1.93;1.83;;;7.30;92.70;;;;;;5105585;28;20177;-75
2021/04/17 09:38:02;;;;;;;1.67;1.53;;;7.30;92.90;;;;;;5083321;28;20759;-73
2021/04/17 09:40:29;;;;;;;1.40;1.40;;;7.30;92.60;;;;;;5101460;28;20184;-74
2021/04/17 09:42:55;;;;;;;1.87;1.77;;;7.30;92.70;;;;;;5103084;28;20178;-74
2021/04/17 09:45:36;;;;;;;1.80;1.70;;;7.40;92.60;;;;;;5096380;28;20218;-73
2021/04/17 09:48:05;;;;;;;1.40;1.40;;;7.30;92.70;;;;;;5100689;28;20874;-75
2021/04/17 09:50:32;;;;;;;1.43;1.33;;;7.30;92.70;;;;;;5101501;28;20165;-73
2021/04/17 09:53:10;;;;;;;1.67;1.57;;;7.30;92.90;;;;;;5090283;28;20178;-74
2021/04/17 09:56:11;;;;;;;1.10;1.10;;;7.30;93.20;;;;;;5097139;28;20185;-73
2021/04/17 09:58:41;;;;;;;1.87;1.77;;;7.40;93.40;;;;;;5100036;28;20174;-74
2021/04/17 10:01:16;;;;;;;1.77;1.67;;;7.40;93.30;;;;;;5102519;28;20185;-73
2021/04/17 10:03:44;;;;;;;1.50;1.50;;;7.50;92.50;;;;;;5097765;28;20265;-75
2021/04/17 10:06:54;;;;;;;2.07;1.97;;;7.50;92.20;;;;;;5082949;28;20730;-73
2021/04/17 10:09:21;;;;;;;2.23;2.13;;;;;;;;;;4995728;28;20267;-74
2021/04/17 10:11:47;;;;;;;1.40;1.40;;;7.50;92.20;;;;;;4990539;28;20202;-74
2021/04/17 10:14:14;;;;;;;1.20;1.20;;;7.50;92.50;;;;;;4998439;28;20187;-74
2021/04/17 10:16:47;;;;;;;3.23;1.73;;;7.50;92.50;;;;;;4995501;28;20197;-74
2021/04/17 10:19:18;;;;;;;2.23;1.40;;;7.50;92.40;;;;;;4991214;28;20196;-73
2021/04/17 10:21:46;;;;;;;1.77;1.60;;;7.30;92.70;;;;;;4994057;28;20189;-73
2021/04/17 10:24:17;;;;;;;1.60;1.50;;;7.40;92.60;;;;;;4984307;28;20221;-72
2021/04/17 10:27:05;;;;;;;4.17;1.50;;;7.20;92.90;;;;;;4991638;28;20728;-72
2021/04/17 10:29:52;;;;;;;1.40;1.30;;;7.20;92.80;;;;;;4979188;28;20204;-74
2021/04/17 10:32:22;;;;;;;1.80;1.70;;;7.30;93.30;;;;;;4991862;28;20200;-74
2021/04/17 10:34:50;;;;;;;1.00;1.00;;;7.30;93.00;;;;;;4975351;28;20197;-73
2021/04/17 10:37:21;;;;;;;1.27;1.27;;;7.30;93.20;;;;;;4995006;28;20606;-74
2021/04/17 10:40:07;;;;;;;1.50;1.50;;;7.30;93.00;;;;;;4988869;28;20184;-73
2021/04/17 10:42:46;;;;;;;2.70;1.07;;;7.30;93.00;;;;;;5018661;28;20553;-74
2021/04/17 10:45:29;;;;;;;0.93;0.93;;;7.40;92.80;;;;;;5101473;28;20202;-73
2021/04/17 10:48:19;;;;;;;1.00;1.00;;;7.40;92.70;;;;;;5101247;28;20544;-75
2021/04/17 10:51:22;;;;;;;1.23;1.00;;;7.50;92.30;;;;;;5100429;28;20182;-74
2021/04/17 10:53:49;;;;;;;1.10;1.10;;;7.50;92.30;;;;;;5028801;28;20208;-75
2021/04/17 10:56:19;;;;;;;4.00;1.43;;;7.50;91.90;;;;;;5026026;28;20238;-74
2021/04/17 10:58:48;;;;;;;1.00;1.00;;;7.50;92.00;;;;;;5028944;28;20273;-74
2021/04/17 11:01:38;;;;;;;1.13;0.90;;;7.40;92.00;;;;;;5006950;28;21790;-71
2021/04/17 11:04:05;;;;;;;0.93;0.93;;;7.50;92.20;;;;;;5029047;28;20318;-72
2021/04/17 11:06:37;;;;;;;1.47;0.93;;;7.50;92.00;;;;;;5026621;28;20171;-70
2021/04/17 11:09:10;;;;;;;0.60;0.60;;;7.60;92.20;;;;;;5030024;28;20550;-70
2021/04/17 11:11:49;;;;;;;1.00;1.00;;;7.60;91.90;;;;;;5027698;28;20196;-68
2021/04/17 11:14:23;;;;;;;0.90;0.90;;;7.60;91.80;;;;;;5036370;28;20192;-68
2021/04/17 11:16:51;;;;;;;1.27;0.63;;;7.50;91.30;;;;;;5031005;28;20231;-70
2021/04/17 11:19:37;;;;;;;0.70;0.70;;;7.50;91.70;;;;;;5027796;28;20258;-73
2021/04/17 11:22:06;;;;;;;1.10;0.97;;;7.40;91.70;;;;;;5028475;28;20207;-70
2021/04/17 11:24:32;;;;;;;0.73;0.73;;;;;;;;;;5027880;28;20243;-70
2021/04/17 11:26:58;;;;;;;0.97;0.97;;;;;;;;;;5029208;28;20192;-70
2021/04/17 11:29:24;;;;;;;0.97;0.97;;;;;;;;;;5041354;28;20270;-74
2021/04/17 11:31:50;;;;;;;0.83;0.83;;;;;;;;;;5098649;28;20192;-73
2021/04/17 11:34:17;;;;;;;0.70;0.70;;;7.60;91.60;;;;;;5082608;28;20817;-76
2021/04/17 11:36:43;;;;;;;1.40;0.60;;;7.60;92.00;;;;;;5096248;28;20255;-73
2021/04/17 11:39:09;;;;;;;0.70;0.70;;;7.60;91.70;;;;;;5094559;28;20184;-73
2021/04/17 11:41:35;;;;;;;1.30;1.10;;;7.60;91.70;;;;;;5098658;28;20181;-73
2021/04/17 11:44:01;;;;;;;0.90;0.90;;;7.60;92.00;;;;;;5100692;28;20896;-72
2021/04/17 11:46:27;;;;;;;0.97;0.97;;;7.60;92.00;;;;;;5098185;28;20173;-74
2021/04/17 11:48:53;;;;;;;0.57;0.57;;;7.50;92.30;;;;;;5094976;28;20726;-73
2021/04/17 11:51:20;;;;;;;0.97;0.97;;;7.50;92.60;;;;;;5094623;28;20220;-72
2021/04/17 11:53:47;;;;;;;1.80;1.70;;;7.60;93.00;;;;;;5078128;28;20697;-72
2021/04/17 11:56:13;;;;;;;4.77;1.90;;;7.60;92.60;;;;;;5097445;28;20185;-70
2021/04/17 11:58:38;;;;;;;1.30;1.20;;;7.70;92.70;;;;;;5092629;28;20682;-72
2021/04/17 12:01:04;;;;;;;1.40;1.40;;;7.70;92.40;;;;;;5099382;28;20177;-72
2021/04/17 12:03:30;;;;;;;1.07;1.07;;;7.70;92.40;;;;;;5102037;28;20912;-71
2021/04/17 12:05:56;;;;;;;0.90;0.90;;;7.70;92.20;;;;;;5102886;28;20284;-71
2021/04/17 12:08:23;;;;;;;1.13;1.13;;;7.80;92.10;;;;;;5093308;28;20258;-70
2021/04/17 12:10:50;;;;;;;0.90;0.90;;;7.80;91.40;;;;;;5102177;28;20991;-71
2021/04/17 12:13:17;;;;;;;0.93;0.93;;;7.80;91.60;;;;;;5095566;28;20278;-71
2021/04/17 12:15:43;;;;;;;1.43;1.20;;;7.90;91.50;;;;;;5098590;28;20174;-72
2021/04/17 12:18:09;;;;;;;1.50;1.33;;;7.90;91.40;;;;;;5098263;28;20185;-72
2021/04/17 12:20:35;;;;;;;1.77;1.30;;;7.90;91.40;;;;;;5093316;28;20254;-72
2021/04/17 12:23:01;;;;;;;1.00;1.00;;;7.90;91.00;;;;;;5094283;28;20280;-70
2021/04/17 12:25:46;;;;;;;1.00;1.00;;;8.00;91.00;;;;;;5098812;28;21499;-71
2021/04/17 12:28:13;;;;;;;3.23;1.20;;;;;;;;;;5098876;28;20178;-70
2021/04/17 12:30:39;;;;;;;1.27;1.17;;;8.00;90.80;;;;;;5095349;28;20245;-71
2021/04/17 12:33:06;;;;;;;1.50;1.50;;;8.00;90.60;;;;;;5095279;28;20654;-70
2021/04/17 12:35:32;;;;;;;1.77;1.67;;;;;;;;;;5095251;28;20201;-70
2021/04/17 12:37:59;;;;;;;6.00;1.30;;;;;;;;;;5095934;28;20184;-71
2021/04/17 12:40:24;;;;;;;1.73;1.63;;;7.90;90.80;;;;;;5096594;28;20178;-70
2021/04/17 12:42:50;;;;;;;1.17;1.17;;;7.90;91.00;;;;;;5095558;28;20231;-70
2021/04/17 12:45:16;;;;;;;1.80;1.70;;;;;;;;;;5092624;28;20282;-70
2021/04/17 12:47:42;;;;;;;1.20;1.10;;;;;;;;;;5077043;28;20190;-70
2021/04/17 12:50:09;;;;;;;1.40;1.30;;;7.80;91.30;;;;;;5097121;28;20248;-70
2021/04/17 12:52:36;;;;;;;1.37;1.37;;;7.80;91.50;;;;;;5100674;28;20174;-71
2021/04/17 12:55:02;;;;;;;1.03;1.03;;;;;;;;;;5098753;28;20186;-71
2021/04/17 12:57:28;;;;;;;1.27;1.17;;;;;;;;;;5098709;28;20185;-71
2021/04/17 12:59:54;;;;;;;1.70;1.43;;;;;;;;;;5097769;28;20247;-71
2021/04/17 13:02:20;;;;;;;1.70;1.60;;;;;;;;;;5099525;28;20724;-74
2021/04/17 13:04:46;;;;;;;1.80;1.80;;;;;;;;;;5093634;28;20201;-72
2021/04/17 13:07:12;;;;;;;1.77;1.70;;;;;;;;;;5097969;28;20189;-72
2021/04/17 13:09:38;;;;;;;1.53;1.50;;;;;;;;;;5097170;28;20225;-72
2021/04/17 13:12:04;;;;;;;1.57;1.57;;;7.60;93.00;;;;;;5097486;28;20273;-71
2021/04/17 13:14:30;;;;;;;2.90;1.70;;;;;;;;;;5096611;28;20208;-73
2021/04/17 13:16:56;;;;;;;1.37;1.30;;;;;;;;;;5101154;28;20182;-73
2021/04/17 13:19:24;;;;;;;1.87;1.87;;;;;;;;;;5099965;28;20595;-74
2021/04/17 13:21:52;;;;;;;2.03;1.87;;;;;;;;;;5099868;28;20174;-73
2021/04/17 13:24:18;;;;;;;2.20;2.00;;;;;;;;;;5095454;28;20202;-73
2021/04/17 13:26:44;;;;;;;2.17;2.07;;;;;;;;;;5094862;28;20181;-71
2021/04/17 13:29:10;;;;;;;1.90;1.80;;;;;;;;;;5100011;28;20178;-72
2021/04/17 13:31:36;;;;;;;2.27;2.17;;;7.80;92.80;;;;;;5079791;28;20228;-72
2021/04/17 13:34:02;;;;;;;2.10;2.00;;;;;;;;;;5095375;28;20645;-72
2021/04/17 13:36:28;;;;;;;1.87;1.73;;;;;;;;;;5097195;28;20573;-72
2021/04/17 13:38:54;;;;;;;2.70;1.70;;;7.70;93.00;;;;;;5102598;28;20178;-72
2021/04/17 13:41:20;;;;;;;2.00;1.60;;;7.60;93.40;;;;;;5095186;28;20681;-72
2021/04/17 13:43:46;;;;;;;1.67;1.63;;;;;;;;;;5095743;28;20290;-73
2021/04/17 13:46:12;;;;;;;2.43;1.53;;;;;;;;;;5099937;28;20179;-72